sensor_id;sensor_type;location;lat;lon;timestamp;temperature;humidity
14749;DHT22;7466;53.574;9.976;2023-07-02T00:00:04;15.00;99.90
14749;DHT22;7466;53.574;9.976;2023-07-02T00:02:35;14.90;99.90
14749;DHT22;7466;53.574;9.976;2023-07-02T00:05:02;14.90;99.90
14749;DHT22;7466;53.574;9.976;2023-07-02T00:07:28;14.90;99.90
14749;DHT22;7466;53.574;9.976;2023-07-02T00:09:55;14.90;99.90
14749;DHT22;7466;53.574;9.976;2023-07-02T00:12:22;14.90;99.90
14749;DHT22;7466;53.574;9.976;2023-07-02T00:14:50;14.80;99.90
14749;DHT22;7466;53.574;9.976;2023-07-02T00:17:18;14.90;99.90
14749;DHT22;7466;53.574;9.976;2023-07-02T00:19:45;14.80;99.90
14749;DHT22;7466;53.574;9.976;2023-07-02T00:22:12;14.80;99.90
14749;DHT22;7466;53.574;9.976;2023-07-02T00:24:41;14.80;99.90
14749;DHT22;7466;53.574;9.976;2023-07-02T00:27:08;14.80;99.90
14749;DHT22;7466;53.574;9.976;2023-07-02T00:29:35;14.80;99.90
14749;DHT22;7466;53.574;9.976;2023-07-02T00:32:04;14.80;99.90
14749;DHT22;7466;53.574;9.976;2023-07-02T00:34:31;14.80;99.90
14749;DHT22;7466;53.574;9.976;2023-07-02T00:36:58;14.80;99.90
14749;DHT22;7466;53.574;9.976;2023-07-02T00:39:25;14.80;99.90
14749;DHT22;7466;53.574;9.976;2023-07-02T00:41:52;14.80;99.90
14749;DHT22;7466;53.574;9.976;2023-07-02T00:44:18;14.80;99.90
14749;DHT22;7466;53.574;9.976;2023-07-02T00:46:45;14.80;99.90
14749;DHT22;7466;53.574;9.976;2023-07-02T00:49:13;14.90;99.90
14749;DHT22;7466;53.574;9.976;2023-07-02T00:51:40;14.80;99.90
14749;DHT22;7466;53.574;9.976;2023-07-02T00:54:08;14.90;99.90
14749;DHT22;7466;53.574;9.976;2023-07-02T00:56:37;14.90;99.90
14749;DHT22;7466;53.574;9.976;2023-07-02T00:59:04;14.90;99.90
14749;DHT22;7466;53.574;9.976;2023-07-02T01:01:32;14.90;99.90
14749;DHT22;7466;53.574;9.976;2023-07-02T01:04:05;14.90;99.90
14749;DHT22;7466;53.574;9.976;2023-07-02T01:06:35;14.90;99.90
14749;DHT22;7466;53.574;9.976;2023-07-02T01:09:04;14.90;99.90
14749;DHT22;7466;53.574;9.976;2023-07-02T01:11:35;15.00;99.90
14749;DHT22;7466;53.574;9.976;2023-07-02T01:14:07;15.00;99.90
14749;DHT22;7466;53.574;9.976;2023-07-02T01:16:35;14.90;99.90
14749;DHT22;7466;53.574;9.976;2023-07-02T01:19:04;15.00;99.90
14749;DHT22;7466;53.574;9.976;2023-07-02T01:21:36;15.00;99.90
14749;DHT22;7466;53.574;9.976;2023-07-02T01:24:04;15.00;99.90
14749;DHT22;7466;53.574;9.976;2023-07-02T01:26:31;15.00;99.90
14749;DHT22;7466;53.574;9.976;2023-07-02T01:29:00;15.00;99.90
14749;DHT22;7466;53.574;9.976;2023-07-02T01:31:27;15.00;99.90
14749;DHT22;7466;53.574;9.976;2023-07-02T01:33:54;15.00;99.90
14749;DHT22;7466;53.574;9.976;2023-07-02T01:36:21;15.00;99.90
14749;DHT22;7466;53.574;9.976;2023-07-02T01:38:49;15.00;99.90
14749;DHT22;7466;53.574;9.976;2023-07-02T01:41:16;15.00;99.90
14749;DHT22;7466;53.574;9.976;2023-07-02T01:43:43;15.00;99.90
14749;DHT22;7466;53.574;9.976;2023-07-02T01:46:10;15.00;99.90
14749;DHT22;7466;53.574;9.976;2023-07-02T01:48:38;15.00;99.90
14749;DHT22;7466;53.574;9.976;2023-07-02T01:51:05;15.00;99.90
14749;DHT22;7466;53.574;9.976;2023-07-02T01:53:31;15.00;99.90
14749;DHT22;7466;53.574;9.976;2023-07-02T01:55:59;15.00;99.90
14749;DHT22;7466;53.574;9.976;2023-07-02T01:58:26;15.00;99.90
14749;DHT22;7466;53.574;9.976;2023-07-02T02:00:53;15.00;99.90
14749;DHT22;7466;53.574;9.976;2023-07-02T02:03:22;15.00;99.90
14749;DHT22;7466;53.574;9.976;2023-07-02T02:05:49;15.00;99.90
14749;DHT22;7466;53.574;9.976;2023-07-02T02:08:16;15.00;99.90
14749;DHT22;7466;53.574;9.976;2023-07-02T02:10:42;14.90;99.90
14749;DHT22;7466;53.574;9.976;2023-07-02T02:13:11;14.90;99.90
14749;DHT22;7466;53.574;9.976;2023-07-02T02:15:37;14.90;99.90
14749;DHT22;7466;53.574;9.976;2023-07-02T02:18:04;14.90;99.90
14749;DHT22;7466;53.574;9.976;2023-07-02T02:20:31;14.80;99.90
14749;DHT22;7466;53.574;9.976;2023-07-02T02:22:58;14.80;99.90
14749;DHT22;7466;53.574;9.976;2023-07-02T02:25:25;14.80;99.90
14749;DHT22;7466;53.574;9.976;2023-07-02T02:27:52;14.80;99.90
14749;DHT22;7466;53.574;9.976;2023-07-02T02:30:20;14.80;99.90
14749;DHT22;7466;53.574;9.976;2023-07-02T02:32:47;14.80;99.90
14749;DHT22;7466;53.574;9.976;2023-07-02T02:35:14;14.80;99.90
14749;DHT22;7466;53.574;9.976;2023-07-02T02:37:41;14.80;99.90
14749;DHT22;7466;53.574;9.976;2023-07-02T02:40:08;14.80;99.90
14749;DHT22;7466;53.574;9.976;2023-07-02T02:42:35;14.70;99.90
14749;DHT22;7466;53.574;9.976;2023-07-02T02:45:02;14.70;99.90
14749;DHT22;7466;53.574;9.976;2023-07-02T02:47:31;14.70;99.90
14749;DHT22;7466;53.574;9.976;2023-07-02T02:49:59;14.70;99.90
14749;DHT22;7466;53.574;9.976;2023-07-02T02:52:26;14.70;99.90
14749;DHT22;7466;53.574;9.976;2023-07-02T02:54:53;14.70;99.90
14749;DHT22;7466;53.574;9.976;2023-07-02T02:57:19;14.70;99.90
14749;DHT22;7466;53.574;9.976;2023-07-02T02:59:46;14.70;99.90
14749;DHT22;7466;53.574;9.976;2023-07-02T03:02:13;14.60;99.90
14749;DHT22;7466;53.574;9.976;2023-07-02T03:04:43;14.60;99.90
14749;DHT22;7466;53.574;9.976;2023-07-02T03:07:10;14.60;99.90
14749;DHT22;7466;53.574;9.976;2023-07-02T03:09:37;14.60;99.90
14749;DHT22;7466;53.574;9.976;2023-07-02T03:12:04;14.60;99.90
14749;DHT22;7466;53.574;9.976;2023-07-02T03:14:31;14.60;99.90
14749;DHT22;7466;53.574;9.976;2023-07-02T03:16:58;14.60;99.90
14749;DHT22;7466;53.574;9.976;2023-07-02T03:19:25;14.60;99.90
14749;DHT22;7466;53.574;9.976;2023-07-02T03:21:54;14.60;99.90
14749;DHT22;7466;53.574;9.976;2023-07-02T03:24:21;14.60;99.90
14749;DHT22;7466;53.574;9.976;2023-07-02T03:26:48;14.60;99.90
14749;DHT22;7466;53.574;9.976;2023-07-02T03:29:16;14.60;99.90
14749;DHT22;7466;53.574;9.976;2023-07-02T03:31:45;14.60;99.90
14749;DHT22;7466;53.574;9.976;2023-07-02T03:34:11;14.60;99.90
14749;DHT22;7466;53.574;9.976;2023-07-02T03:36:38;14.60;99.90
14749;DHT22;7466;53.574;9.976;2023-07-02T03:39:07;14.60;99.90
14749;DHT22;7466;53.574;9.976;2023-07-02T03:41:34;14.70;99.90
14749;DHT22;7466;53.574;9.976;2023-07-02T03:44:00;14.70;99.90
14749;DHT22;7466;53.574;9.976;2023-07-02T03:46:27;14.60;99.90
14749;DHT22;7466;53.574;9.976;2023-07-02T03:48:56;14.60;99.90
14749;DHT22;7466;53.574;9.976;2023-07-02T03:51:22;14.60;99.90
14749;DHT22;7466;53.574;9.976;2023-07-02T03:53:49;14.60;99.90
14749;DHT22;7466;53.574;9.976;2023-07-02T03:56:17;14.60;99.90
14749;DHT22;7466;53.574;9.976;2023-07-02T03:58:45;14.60;99.90
14749;DHT22;7466;53.574;9.976;2023-07-02T04:01:12;14.60;99.90
14749;DHT22;7466;53.574;9.976;2023-07-02T04:03:47;14.60;99.90
14749;DHT22;7466;53.574;9.976;2023-07-02T04:06:14;14.60;99.90
14749;DHT22;7466;53.574;9.976;2023-07-02T04:08:41;14.70;99.90
14749;DHT22;7466;53.574;9.976;2023-07-02T04:11:08;14.70;99.90
14749;DHT22;7466;53.574;9.976;2023-07-02T04:13:36;14.70;99.90
14749;DHT22;7466;53.574;9.976;2023-07-02T04:16:04;14.70;99.90
14749;DHT22;7466;53.574;9.976;2023-07-02T04:18:31;14.80;99.90
14749;DHT22;7466;53.574;9.976;2023-07-02T04:20:58;14.70;99.90
14749;DHT22;7466;53.574;9.976;2023-07-02T04:23:25;14.70;99.90
14749;DHT22;7466;53.574;9.976;2023-07-02T04:25:52;14.80;99.90
14749;DHT22;7466;53.574;9.976;2023-07-02T04:28:20;14.80;99.90
14749;DHT22;7466;53.574;9.976;2023-07-02T04:30:50;14.80;99.90
14749;DHT22;7466;53.574;9.976;2023-07-02T04:33:18;14.80;99.90
14749;DHT22;7466;53.574;9.976;2023-07-02T04:35:45;14.80;99.90
14749;DHT22;7466;53.574;9.976;2023-07-02T04:38:12;14.80;99.90
14749;DHT22;7466;53.574;9.976;2023-07-02T04:40:39;14.90;99.90
14749;DHT22;7466;53.574;9.976;2023-07-02T04:43:07;14.90;99.90
14749;DHT22;7466;53.574;9.976;2023-07-02T04:45:34;14.90;99.90
14749;DHT22;7466;53.574;9.976;2023-07-02T04:48:03;15.00;99.90
14749;DHT22;7466;53.574;9.976;2023-07-02T04:50:30;15.00;99.90
14749;DHT22;7466;53.574;9.976;2023-07-02T04:52:58;15.10;99.90
14749;DHT22;7466;53.574;9.976;2023-07-02T04:55:26;15.10;99.90
14749;DHT22;7466;53.574;9.976;2023-07-02T04:57:53;15.10;99.90
14749;DHT22;7466;53.574;9.976;2023-07-02T05:00:20;15.10;99.90
14749;DHT22;7466;53.574;9.976;2023-07-02T05:02:48;15.20;99.90
14749;DHT22;7466;53.574;9.976;2023-07-02T05:05:17;15.20;99.90
14749;DHT22;7466;53.574;9.976;2023-07-02T05:07:43;15.20;99.90
14749;DHT22;7466;53.574;9.976;2023-07-02T05:10:16;15.30;99.90
14749;DHT22;7466;53.574;9.976;2023-07-02T05:12:44;15.30;99.90
14749;DHT22;7466;53.574;9.976;2023-07-02T05:15:10;15.30;99.90
14749;DHT22;7466;53.574;9.976;2023-07-02T05:17:38;15.30;99.90
14749;DHT22;7466;53.574;9.976;2023-07-02T05:20:06;15.30;99.90
14749;DHT22;7466;53.574;9.976;2023-07-02T05:22:54;15.40;99.90
14749;DHT22;7466;53.574;9.976;2023-07-02T05:25:20;15.40;99.90
14749;DHT22;7466;53.574;9.976;2023-07-02T05:27:47;15.50;99.90
14749;DHT22;7466;53.574;9.976;2023-07-02T05:30:14;15.50;99.90
14749;DHT22;7466;53.574;9.976;2023-07-02T05:32:42;15.50;99.90
14749;DHT22;7466;53.574;9.976;2023-07-02T05:35:09;15.60;99.90
14749;DHT22;7466;53.574;9.976;2023-07-02T05:37:36;15.60;99.90
14749;DHT22;7466;53.574;9.976;2023-07-02T05:40:07;15.70;99.90
14749;DHT22;7466;53.574;9.976;2023-07-02T05:42:35;15.70;99.90
14749;DHT22;7466;53.574;9.976;2023-07-02T05:45:01;15.80;99.90
14749;DHT22;7466;53.574;9.976;2023-07-02T05:47:28;15.80;99.90
14749;DHT22;7466;53.574;9.976;2023-07-02T05:49:58;15.80;99.90
14749;DHT22;7466;53.574;9.976;2023-07-02T05:52:25;15.80;99.90
14749;DHT22;7466;53.574;9.976;2023-07-02T05:54:51;15.90;99.90
14749;DHT22;7466;53.574;9.976;2023-07-02T05:57:20;16.00;99.90
14749;DHT22;7466;53.574;9.976;2023-07-02T05:59:46;16.00;99.90
14749;DHT22;7466;53.574;9.976;2023-07-02T06:02:14;16.10;99.90
14749;DHT22;7466;53.574;9.976;2023-07-02T06:04:45;16.00;99.90
14749;DHT22;7466;53.574;9.976;2023-07-02T06:07:13;16.20;99.90
14749;DHT22;7466;53.574;9.976;2023-07-02T06:09:40;16.20;99.90
14749;DHT22;7466;53.574;9.976;2023-07-02T06:12:07;16.20;99.90
14749;DHT22;7466;53.574;9.976;2023-07-02T06:14:35;16.30;99.90
14749;DHT22;7466;53.574;9.976;2023-07-02T06:17:02;16.40;99.90
14749;DHT22;7466;53.574;9.976;2023-07-02T06:19:31;16.40;99.90
14749;DHT22;7466;53.574;9.976;2023-07-02T06:21:59;16.50;99.90
14749;DHT22;7466;53.574;9.976;2023-07-02T06:24:25;16.60;99.90
14749;DHT22;7466;53.574;9.976;2023-07-02T06:26:52;16.70;99.90
14749;DHT22;7466;53.574;9.976;2023-07-02T06:29:19;16.70;99.90
14749;DHT22;7466;53.574;9.976;2023-07-02T06:31:47;16.80;99.90
14749;DHT22;7466;53.574;9.976;2023-07-02T06:34:14;16.80;99.90
14749;DHT22;7466;53.574;9.976;2023-07-02T06:36:41;17.10;99.90
14749;DHT22;7466;53.574;9.976;2023-07-02T06:39:08;16.90;99.90
14749;DHT22;7466;53.574;9.976;2023-07-02T06:41:35;17.10;99.90
14749;DHT22;7466;53.574;9.976;2023-07-02T06:44:02;17.10;99.90
14749;DHT22;7466;53.574;9.976;2023-07-02T06:46:30;17.10;99.90
14749;DHT22;7466;53.574;9.976;2023-07-02T06:48:59;17.00;99.90
14749;DHT22;7466;53.574;9.976;2023-07-02T06:51:26;17.00;99.90
14749;DHT22;7466;53.574;9.976;2023-07-02T06:53:54;17.00;99.90
14749;DHT22;7466;53.574;9.976;2023-07-02T06:56:21;17.10;99.90
14749;DHT22;7466;53.574;9.976;2023-07-02T06:58:48;17.20;99.90
14749;DHT22;7466;53.574;9.976;2023-07-02T07:01:15;17.40;99.90
14749;DHT22;7466;53.574;9.976;2023-07-02T07:03:42;17.40;99.90
14749;DHT22;7466;53.574;9.976;2023-07-02T07:06:11;17.10;99.90
14749;DHT22;7466;53.574;9.976;2023-07-02T07:08:38;17.20;99.90
14749;DHT22;7466;53.574;9.976;2023-07-02T07:11:05;17.20;99.90
14749;DHT22;7466;53.574;9.976;2023-07-02T07:13:32;17.50;99.90
14749;DHT22;7466;53.574;9.976;2023-07-02T07:15:59;17.70;99.90
14749;DHT22;7466;53.574;9.976;2023-07-02T07:18:26;17.70;99.90
14749;DHT22;7466;53.574;9.976;2023-07-02T07:20:52;17.80;99.90
14749;DHT22;7466;53.574;9.976;2023-07-02T07:23:21;17.80;99.90
14749;DHT22;7466;53.574;9.976;2023-07-02T07:25:48;17.50;99.90
14749;DHT22;7466;53.574;9.976;2023-07-02T07:28:14;17.50;99.90
14749;DHT22;7466;53.574;9.976;2023-07-02T07:30:42;17.30;99.90
14749;DHT22;7466;53.574;9.976;2023-07-02T07:33:11;17.20;99.90
14749;DHT22;7466;53.574;9.976;2023-07-02T07:35:38;17.30;99.90
14749;DHT22;7466;53.574;9.976;2023-07-02T07:38:05;17.30;99.90
14749;DHT22;7466;53.574;9.976;2023-07-02T07:40:33;17.30;99.90
14749;DHT22;7466;53.574;9.976;2023-07-02T07:43:00;17.50;99.90
14749;DHT22;7466;53.574;9.976;2023-07-02T07:45:27;17.70;99.90
14749;DHT22;7466;53.574;9.976;2023-07-02T07:47:54;17.70;99.90
14749;DHT22;7466;53.574;9.976;2023-07-02T07:50:21;17.70;99.90
14749;DHT22;7466;53.574;9.976;2023-07-02T07:52:48;17.70;99.90
14749;DHT22;7466;53.574;9.976;2023-07-02T07:55:15;17.50;99.90
14749;DHT22;7466;53.574;9.976;2023-07-02T07:57:43;17.20;99.90
14749;DHT22;7466;53.574;9.976;2023-07-02T08:00:11;17.30;99.90
14749;DHT22;7466;53.574;9.976;2023-07-02T08:02:38;17.50;99.90
14749;DHT22;7466;53.574;9.976;2023-07-02T08:05:05;17.80;99.90
14749;DHT22;7466;53.574;9.976;2023-07-02T08:07:33;17.90;99.90
14749;DHT22;7466;53.574;9.976;2023-07-02T08:10:00;17.90;99.90
14749;DHT22;7466;53.574;9.976;2023-07-02T08:12:28;18.10;99.90
14749;DHT22;7466;53.574;9.976;2023-07-02T08:14:56;18.40;99.90
14749;DHT22;7466;53.574;9.976;2023-07-02T08:17:23;18.50;99.90
14749;DHT22;7466;53.574;9.976;2023-07-02T08:19:50;18.90;99.90
14749;DHT22;7466;53.574;9.976;2023-07-02T08:22:17;18.80;99.90
14749;DHT22;7466;53.574;9.976;2023-07-02T08:24:44;18.30;99.90
14749;DHT22;7466;53.574;9.976;2023-07-02T08:27:10;18.20;99.90
14749;DHT22;7466;53.574;9.976;2023-07-02T08:29:39;18.30;99.90
14749;DHT22;7466;53.574;9.976;2023-07-02T08:32:08;18.20;99.90
14749;DHT22;7466;53.574;9.976;2023-07-02T08:34:35;18.30;99.90
14749;DHT22;7466;53.574;9.976;2023-07-02T08:37:07;18.20;99.90
14749;DHT22;7466;53.574;9.976;2023-07-02T08:39:36;18.30;99.90
14749;DHT22;7466;53.574;9.976;2023-07-02T08:42:05;18.20;99.90
14749;DHT22;7466;53.574;9.976;2023-07-02T08:44:32;18.20;99.90
14749;DHT22;7466;53.574;9.976;2023-07-02T08:47:00;18.40;99.90
14749;DHT22;7466;53.574;9.976;2023-07-02T08:49:28;18.70;99.90
14749;DHT22;7466;53.574;9.976;2023-07-02T08:51:55;18.70;99.90
14749;DHT22;7466;53.574;9.976;2023-07-02T08:54:22;18.70;99.90
14749;DHT22;7466;53.574;9.976;2023-07-02T08:56:49;18.70;99.90
14749;DHT22;7466;53.574;9.976;2023-07-02T08:59:16;18.80;99.90
14749;DHT22;7466;53.574;9.976;2023-07-02T09:01:46;18.90;99.90
14749;DHT22;7466;53.574;9.976;2023-07-02T09:04:18;19.40;99.90
14749;DHT22;7466;53.574;9.976;2023-07-02T09:06:47;19.40;99.90
14749;DHT22;7466;53.574;9.976;2023-07-02T09:09:14;19.30;99.90
14749;DHT22;7466;53.574;9.976;2023-07-02T09:11:49;19.20;99.90
14749;DHT22;7466;53.574;9.976;2023-07-02T09:14:26;19.20;99.90
14749;DHT22;7466;53.574;9.976;2023-07-02T09:17:07;18.60;99.90
14749;DHT22;7466;53.574;9.976;2023-07-02T09:19:34;18.40;99.90
14749;DHT22;7466;53.574;9.976;2023-07-02T09:22:03;18.20;99.90
14749;DHT22;7466;53.574;9.976;2023-07-02T09:24:31;18.00;99.90
14749;DHT22;7466;53.574;9.976;2023-07-02T09:26:59;17.80;99.90
14749;DHT22;7466;53.574;9.976;2023-07-02T09:29:28;17.60;99.90
14749;DHT22;7466;53.574;9.976;2023-07-02T09:31:56;17.20;99.90
14749;DHT22;7466;53.574;9.976;2023-07-02T09:34:28;16.70;99.90
14749;DHT22;7466;53.574;9.976;2023-07-02T09:36:55;16.60;99.90
14749;DHT22;7466;53.574;9.976;2023-07-02T09:39:27;16.50;99.90
14749;DHT22;7466;53.574;9.976;2023-07-02T09:41:55;16.20;99.90
14749;DHT22;7466;53.574;9.976;2023-07-02T09:44:26;16.30;99.90
14749;DHT22;7466;53.574;9.976;2023-07-02T09:47:01;16.70;99.90
14749;DHT22;7466;53.574;9.976;2023-07-02T09:49:31;16.90;99.90
14749;DHT22;7466;53.574;9.976;2023-07-02T09:51:59;17.50;99.90
14749;DHT22;7466;53.574;9.976;2023-07-02T09:54:28;17.80;99.90
14749;DHT22;7466;53.574;9.976;2023-07-02T09:56:56;17.90;99.90
14749;DHT22;7466;53.574;9.976;2023-07-02T09:59:23;18.40;99.90
14749;DHT22;7466;53.574;9.976;2023-07-02T10:01:50;18.70;99.90
14749;DHT22;7466;53.574;9.976;2023-07-02T10:04:18;18.50;99.90
14749;DHT22;7466;53.574;9.976;2023-07-02T10:06:46;18.40;99.90
14749;DHT22;7466;53.574;9.976;2023-07-02T10:09:14;18.70;99.90
14749;DHT22;7466;53.574;9.976;2023-07-02T10:11:42;19.00;99.90
14749;DHT22;7466;53.574;9.976;2023-07-02T10:14:09;19.50;99.90
14749;DHT22;7466;53.574;9.976;2023-07-02T10:16:49;19.50;99.90
14749;DHT22;7466;53.574;9.976;2023-07-02T10:19:16;19.40;99.90
14749;DHT22;7466;53.574;9.976;2023-07-02T10:21:43;19.40;99.90
14749;DHT22;7466;53.574;9.976;2023-07-02T10:24:12;19.50;99.90
14749;DHT22;7466;53.574;9.976;2023-07-02T10:26:52;19.50;99.90
14749;DHT22;7466;53.574;9.976;2023-07-02T10:29:20;19.40;99.90
14749;DHT22;7466;53.574;9.976;2023-07-02T10:31:50;19.40;99.90
14749;DHT22;7466;53.574;9.976;2023-07-02T10:34:28;19.10;99.90
14749;DHT22;7466;53.574;9.976;2023-07-02T10:36:55;18.60;99.90
14749;DHT22;7466;53.574;9.976;2023-07-02T10:39:22;18.50;99.90
14749;DHT22;7466;53.574;9.976;2023-07-02T10:41:49;18.20;99.90
14749;DHT22;7466;53.574;9.976;2023-07-02T10:44:17;18.20;99.90
14749;DHT22;7466;53.574;9.976;2023-07-02T10:46:45;18.00;99.90
14749;DHT22;7466;53.574;9.976;2023-07-02T10:49:11;17.80;99.90
14749;DHT22;7466;53.574;9.976;2023-07-02T10:51:38;17.80;99.90
14749;DHT22;7466;53.574;9.976;2023-07-02T10:54:06;17.80;99.90
14749;DHT22;7466;53.574;9.976;2023-07-02T10:56:32;17.90;99.90
14749;DHT22;7466;53.574;9.976;2023-07-02T10:58:59;17.70;99.90
14749;DHT22;7466;53.574;9.976;2023-07-02T11:01:29;17.60;99.90
14749;DHT22;7466;53.574;9.976;2023-07-02T11:03:57;17.60;99.90
14749;DHT22;7466;53.574;9.976;2023-07-02T11:06:25;17.60;99.90
14749;DHT22;7466;53.574;9.976;2023-07-02T11:08:52;17.60;99.90
14749;DHT22;7466;53.574;9.976;2023-07-02T11:11:21;18.10;99.90
14749;DHT22;7466;53.574;9.976;2023-07-02T11:13:49;18.50;99.90
14749;DHT22;7466;53.574;9.976;2023-07-02T11:16:21;18.80;99.90
14749;DHT22;7466;53.574;9.976;2023-07-02T11:18:53;19.20;99.90
14749;DHT22;7466;53.574;9.976;2023-07-02T11:21:20;19.80;99.90
14749;DHT22;7466;53.574;9.976;2023-07-02T11:23:47;20.20;99.90
14749;DHT22;7466;53.574;9.976;2023-07-02T11:26:14;20.00;99.90
14749;DHT22;7466;53.574;9.976;2023-07-02T11:28:50;20.00;99.90
14749;DHT22;7466;53.574;9.976;2023-07-02T11:31:27;19.80;99.90
14749;DHT22;7466;53.574;9.976;2023-07-02T11:33:55;20.00;99.90
14749;DHT22;7466;53.574;9.976;2023-07-02T11:36:23;19.90;99.90
14749;DHT22;7466;53.574;9.976;2023-07-02T11:38:51;20.30;99.90
14749;DHT22;7466;53.574;9.976;2023-07-02T11:41:18;20.40;99.90
14749;DHT22;7466;53.574;9.976;2023-07-02T11:43:46;20.60;99.90
14749;DHT22;7466;53.574;9.976;2023-07-02T11:46:13;21.00;99.90
14749;DHT22;7466;53.574;9.976;2023-07-02T11:48:41;21.30;99.90
14749;DHT22;7466;53.574;9.976;2023-07-02T11:51:11;21.30;99.90
14749;DHT22;7466;53.574;9.976;2023-07-02T11:53:39;20.70;99.90
14749;DHT22;7466;53.574;9.976;2023-07-02T11:56:06;20.80;99.90
14749;DHT22;7466;53.574;9.976;2023-07-02T11:58:33;20.30;99.90
14749;DHT22;7466;53.574;9.976;2023-07-02T12:01:00;19.90;99.90
14749;DHT22;7466;53.574;9.976;2023-07-02T12:03:26;20.00;99.90
14749;DHT22;7466;53.574;9.976;2023-07-02T12:05:53;19.80;99.90
14749;DHT22;7466;53.574;9.976;2023-07-02T12:08:21;19.60;99.90
14749;DHT22;7466;53.574;9.976;2023-07-02T12:10:48;19.50;99.90
14749;DHT22;7466;53.574;9.976;2023-07-02T12:13:15;19.50;99.90
14749;DHT22;7466;53.574;9.976;2023-07-02T12:15:42;19.50;99.90
14749;DHT22;7466;53.574;9.976;2023-07-02T12:18:09;19.80;99.90
14749;DHT22;7466;53.574;9.976;2023-07-02T12:20:36;20.00;99.90
14749;DHT22;7466;53.574;9.976;2023-07-02T12:23:03;20.40;99.90
14749;DHT22;7466;53.574;9.976;2023-07-02T12:25:32;20.90;99.90
14749;DHT22;7466;53.574;9.976;2023-07-02T12:27:59;21.70;99.90
14749;DHT22;7466;53.574;9.976;2023-07-02T12:30:26;22.30;99.90
14749;DHT22;7466;53.574;9.976;2023-07-02T12:32:53;21.90;99.90
14749;DHT22;7466;53.574;9.976;2023-07-02T12:35:19;21.40;99.90
14749;DHT22;7466;53.574;9.976;2023-07-02T12:37:47;20.80;99.90
14749;DHT22;7466;53.574;9.976;2023-07-02T12:40:14;20.80;99.90
14749;DHT22;7466;53.574;9.976;2023-07-02T12:42:43;21.20;99.90
14749;DHT22;7466;53.574;9.976;2023-07-02T12:45:12;21.10;99.90
14749;DHT22;7466;53.574;9.976;2023-07-02T12:47:39;21.40;99.90
14749;DHT22;7466;53.574;9.976;2023-07-02T12:50:07;21.60;98.00
14749;DHT22;7466;53.574;9.976;2023-07-02T12:52:34;21.70;98.10
14749;DHT22;7466;53.574;9.976;2023-07-02T12:55:02;22.30;94.70
14749;DHT22;7466;53.574;9.976;2023-07-02T12:57:28;22.80;92.30
14749;DHT22;7466;53.574;9.976;2023-07-02T12:59:57;23.50;91.00
14749;DHT22;7466;53.574;9.976;2023-07-02T13:02:24;23.30;91.40
14749;DHT22;7466;53.574;9.976;2023-07-02T13:04:51;23.90;90.10
14749;DHT22;7466;53.574;9.976;2023-07-02T13:07:18;23.40;87.30
14749;DHT22;7466;53.574;9.976;2023-07-02T13:09:45;22.00;91.90
14749;DHT22;7466;53.574;9.976;2023-07-02T13:12:12;22.80;93.50
14749;DHT22;7466;53.574;9.976;2023-07-02T13:14:40;23.20;87.80
14749;DHT22;7466;53.574;9.976;2023-07-02T13:17:08;23.90;85.90
14749;DHT22;7466;53.574;9.976;2023-07-02T13:19:35;24.80;82.10
14749;DHT22;7466;53.574;9.976;2023-07-02T13:22:02;25.20;76.00
14749;DHT22;7466;53.574;9.976;2023-07-02T13:24:32;24.30;73.70
14749;DHT22;7466;53.574;9.976;2023-07-02T13:27:02;24.00;76.70
14749;DHT22;7466;53.574;9.976;2023-07-02T13:29:29;23.40;81.20
14749;DHT22;7466;53.574;9.976;2023-07-02T13:31:56;24.60;79.00
14749;DHT22;7466;53.574;9.976;2023-07-02T13:34:24;25.00;75.80
14749;DHT22;7466;53.574;9.976;2023-07-02T13:36:51;25.70;69.10
14749;DHT22;7466;53.574;9.976;2023-07-02T13:39:18;26.40;67.30
14749;DHT22;7466;53.574;9.976;2023-07-02T13:41:44;25.80;67.00
14749;DHT22;7466;53.574;9.976;2023-07-02T13:44:11;26.00;66.70
14749;DHT22;7466;53.574;9.976;2023-07-02T13:46:38;24.60;66.70
14749;DHT22;7466;53.574;9.976;2023-07-02T13:49:05;23.40;70.80
14749;DHT22;7466;53.574;9.976;2023-07-02T13:51:34;22.70;74.60
14749;DHT22;7466;53.574;9.976;2023-07-02T13:54:01;23.30;74.30
14749;DHT22;7466;53.574;9.976;2023-07-02T13:56:27;23.70;73.80
14749;DHT22;7466;53.574;9.976;2023-07-02T13:59:05;24.60;70.10
14749;DHT22;7466;53.574;9.976;2023-07-02T14:01:31;24.10;70.10
14749;DHT22;7466;53.574;9.976;2023-07-02T14:03:59;22.60;73.50
14749;DHT22;7466;53.574;9.976;2023-07-02T14:06:26;21.70;77.30
14749;DHT22;7466;53.574;9.976;2023-07-02T14:08:53;21.50;80.90
14749;DHT22;7466;53.574;9.976;2023-07-02T14:11:21;22.20;82.00
14749;DHT22;7466;53.574;9.976;2023-07-02T14:13:48;23.20;76.90
14749;DHT22;7466;53.574;9.976;2023-07-02T14:16:16;22.90;75.10
14749;DHT22;7466;53.574;9.976;2023-07-02T14:18:43;22.80;76.00
14749;DHT22;7466;53.574;9.976;2023-07-02T14:21:10;22.70;78.70
14749;DHT22;7466;53.574;9.976;2023-07-02T14:23:37;22.70;78.40
14749;DHT22;7466;53.574;9.976;2023-07-02T14:26:04;23.70;74.10
14749;DHT22;7466;53.574;9.976;2023-07-02T14:28:33;23.10;74.30
14749;DHT22;7466;53.574;9.976;2023-07-02T14:31:01;22.50;76.90
14749;DHT22;7466;53.574;9.976;2023-07-02T14:33:32;21.40;79.50
14749;DHT22;7466;53.574;9.976;2023-07-02T14:36:00;20.90;83.40
14749;DHT22;7466;53.574;9.976;2023-07-02T14:38:28;21.30;81.70
14749;DHT22;7466;53.574;9.976;2023-07-02T14:40:55;23.00;77.00
14749;DHT22;7466;53.574;9.976;2023-07-02T14:43:24;24.20;72.80
14749;DHT22;7466;53.574;9.976;2023-07-02T14:45:55;25.10;68.00
14749;DHT22;7466;53.574;9.976;2023-07-02T14:48:22;24.60;68.60
14749;DHT22;7466;53.574;9.976;2023-07-02T14:50:52;22.80;72.80
14749;DHT22;7466;53.574;9.976;2023-07-02T14:53:20;21.90;78.10
14749;DHT22;7466;53.574;9.976;2023-07-02T14:55:48;21.50;82.60
14749;DHT22;7466;53.574;9.976;2023-07-02T14:58:16;21.40;86.30
14749;DHT22;7466;53.574;9.976;2023-07-02T15:00:44;21.00;87.00
14749;DHT22;7466;53.574;9.976;2023-07-02T15:03:11;21.10;88.10
14749;DHT22;7466;53.574;9.976;2023-07-02T15:05:39;22.70;85.60
14749;DHT22;7466;53.574;9.976;2023-07-02T15:08:08;23.40;77.70
14749;DHT22;7466;53.574;9.976;2023-07-02T15:10:35;24.70;73.30
14749;DHT22;7466;53.574;9.976;2023-07-02T15:13:05;24.50;70.70
14749;DHT22;7466;53.574;9.976;2023-07-02T15:15:36;23.10;71.80
14749;DHT22;7466;53.574;9.976;2023-07-02T15:18:05;22.60;75.90
14749;DHT22;7466;53.574;9.976;2023-07-02T15:20:32;21.80;80.30
14749;DHT22;7466;53.574;9.976;2023-07-02T15:22:59;21.30;82.50
14749;DHT22;7466;53.574;9.976;2023-07-02T15:25:29;20.80;85.90
14749;DHT22;7466;53.574;9.976;2023-07-02T15:27:56;20.60;86.90
14749;DHT22;7466;53.574;9.976;2023-07-02T15:30:23;20.70;86.00
14749;DHT22;7466;53.574;9.976;2023-07-02T15:32:50;21.40;85.00
14749;DHT22;7466;53.574;9.976;2023-07-02T15:35:17;22.80;83.00
14749;DHT22;7466;53.574;9.976;2023-07-02T15:37:44;24.30;74.30
14749;DHT22;7466;53.574;9.976;2023-07-02T15:40:11;24.00;70.20
14749;DHT22;7466;53.574;9.976;2023-07-02T15:42:39;24.30;71.70
14749;DHT22;7466;53.574;9.976;2023-07-02T15:45:07;24.80;69.30
14749;DHT22;7466;53.574;9.976;2023-07-02T15:47:35;24.20;70.40